Terminal Aerodrome Forecast
Issued by NWS

Home | Current Version | Previous Version | Graphics & Text | Print | Product List | Glossary On
Versions: 1 2 3 4 5 6 7 8 9 10 11 12 13 14 15 16 17 18 19 20 21 22 23 24
968
FTUS43 KMPX 201049 AAB
TAFRNH
TAF AMD
KRNH 201049Z 2011/2106 13004KT 2SM -DZ BR OVC005
     FM201600 13005KT 3SM BR OVC004
     FM210200 VRB04KT 1 1/2SM -DZ BR OVC003=

USA.gov is the U.S. government's official web portal to all federal, state and local government web resources and services.